sensor_id;sensor_type;location;lat;lon;timestamp;temperature;humidity
51215;DHT22;41093;47.444;19.134;2022-08-19T00:01:56;24.30;56.60
51215;DHT22;41093;47.444;19.134;2022-08-19T00:04:27;24.20;56.70
51215;DHT22;41093;47.444;19.134;2022-08-19T00:06:53;24.20;56.70
51215;DHT22;41093;47.444;19.134;2022-08-19T00:09:20;24.30;56.60
51215;DHT22;41093;47.444;19.134;2022-08-19T00:11:46;24.30;56.40
51215;DHT22;41093;47.444;19.134;2022-08-19T00:14:15;24.20;56.50
51215;DHT22;41093;47.444;19.134;2022-08-19T00:16:43;24.20;56.70
51215;DHT22;41093;47.444;19.134;2022-08-19T00:19:09;24.20;56.90
51215;DHT22;41093;47.444;19.134;2022-08-19T00:21:35;24.10;57.60
51215;DHT22;41093;47.444;19.134;2022-08-19T00:24:10;24.10;57.70
51215;DHT22;41093;47.444;19.134;2022-08-19T00:26:36;24.00;58.00
51215;DHT22;41093;47.444;19.134;2022-08-19T00:29:03;24.00;57.90
51215;DHT22;41093;47.444;19.134;2022-08-19T00:31:29;24.00;57.50
51215;DHT22;41093;47.444;19.134;2022-08-19T00:33:56;23.90;58.10
51215;DHT22;41093;47.444;19.134;2022-08-19T00:36:22;23.90;58.40
51215;DHT22;41093;47.444;19.134;2022-08-19T00:38:48;23.90;58.40
51215;DHT22;41093;47.444;19.134;2022-08-19T00:41:19;23.90;58.90
51215;DHT22;41093;47.444;19.134;2022-08-19T00:44:16;23.80;59.20
51215;DHT22;41093;47.444;19.134;2022-08-19T00:46:44;23.80;59.00
51215;DHT22;41093;47.444;19.134;2022-08-19T00:49:19;23.80;58.70
51215;DHT22;41093;47.444;19.134;2022-08-19T00:51:48;23.70;58.90
51215;DHT22;41093;47.444;19.134;2022-08-19T00:54:16;23.70;58.90
51215;DHT22;41093;47.444;19.134;2022-08-19T00:56:43;23.70;58.60
51215;DHT22;41093;47.444;19.134;2022-08-19T00:59:09;23.60;59.20
51215;DHT22;41093;47.444;19.134;2022-08-19T01:01:41;23.60;59.30
51215;DHT22;41093;47.444;19.134;2022-08-19T01:04:08;23.50;59.80
51215;DHT22;41093;47.444;19.134;2022-08-19T01:06:35;23.50;60.60
51215;DHT22;41093;47.444;19.134;2022-08-19T01:09:02;23.40;60.70
51215;DHT22;41093;47.444;19.134;2022-08-19T01:11:30;23.40;60.60
51215;DHT22;41093;47.444;19.134;2022-08-19T01:13:57;23.40;61.10
51215;DHT22;41093;47.444;19.134;2022-08-19T01:16:25;23.40;61.50
51215;DHT22;41093;47.444;19.134;2022-08-19T01:18:52;23.30;61.30
51215;DHT22;41093;47.444;19.134;2022-08-19T01:21:37;23.30;61.70
51215;DHT22;41093;47.444;19.134;2022-08-19T01:24:06;23.30;62.30
51215;DHT22;41093;47.444;19.134;2022-08-19T01:26:39;23.20;61.90
51215;DHT22;41093;47.444;19.134;2022-08-19T01:29:05;23.20;62.40
51215;DHT22;41093;47.444;19.134;2022-08-19T01:31:34;23.20;62.70
51215;DHT22;41093;47.444;19.134;2022-08-19T01:34:01;23.10;62.50
51215;DHT22;41093;47.444;19.134;2022-08-19T01:36:36;23.10;62.80
51215;DHT22;41093;47.444;19.134;2022-08-19T01:39:07;23.10;62.10
51215;DHT22;41093;47.444;19.134;2022-08-19T01:41:33;23.10;62.40
51215;DHT22;41093;47.444;19.134;2022-08-19T01:43:59;23.00;62.70
51215;DHT22;41093;47.444;19.134;2022-08-19T01:46:29;23.00;62.50
51215;DHT22;41093;47.444;19.134;2022-08-19T01:48:55;23.00;62.80
51215;DHT22;41093;47.444;19.134;2022-08-19T01:51:21;23.00;63.00
51215;DHT22;41093;47.444;19.134;2022-08-19T01:53:49;22.90;63.30
51215;DHT22;41093;47.444;19.134;2022-08-19T01:56:16;22.90;62.70
51215;DHT22;41093;47.444;19.134;2022-08-19T01:58:47;22.90;63.70
51215;DHT22;41093;47.444;19.134;2022-08-19T02:01:15;22.90;63.20
51215;DHT22;41093;47.444;19.134;2022-08-19T02:03:41;22.90;63.00
51215;DHT22;41093;47.444;19.134;2022-08-19T02:06:06;22.90;62.90
51215;DHT22;41093;47.444;19.134;2022-08-19T02:08:36;22.90;63.20
51215;DHT22;41093;47.444;19.134;2022-08-19T02:11:02;22.90;63.30
51215;DHT22;41093;47.444;19.134;2022-08-19T02:13:28;22.90;63.30
51215;DHT22;41093;47.444;19.134;2022-08-19T02:15:54;22.90;63.40
51215;DHT22;41093;47.444;19.134;2022-08-19T02:18:20;22.90;62.80
51215;DHT22;41093;47.444;19.134;2022-08-19T02:20:46;22.90;62.60
51215;DHT22;41093;47.444;19.134;2022-08-19T02:23:14;22.90;62.40
51215;DHT22;41093;47.444;19.134;2022-08-19T02:25:40;22.90;62.10
51215;DHT22;41093;47.444;19.134;2022-08-19T02:28:06;22.90;62.50
51215;DHT22;41093;47.444;19.134;2022-08-19T02:30:33;22.90;62.30
51215;DHT22;41093;47.444;19.134;2022-08-19T02:32:58;22.90;62.20
51215;DHT22;41093;47.444;19.134;2022-08-19T02:35:25;22.90;62.20
51215;DHT22;41093;47.444;19.134;2022-08-19T02:37:51;22.90;61.90
51215;DHT22;41093;47.444;19.134;2022-08-19T02:40:36;22.90;62.20
51215;DHT22;41093;47.444;19.134;2022-08-19T02:43:04;22.90;62.30
51215;DHT22;41093;47.444;19.134;2022-08-19T02:45:36;22.80;63.00
51215;DHT22;41093;47.444;19.134;2022-08-19T02:48:03;22.80;62.80
51215;DHT22;41093;47.444;19.134;2022-08-19T02:50:30;22.70;64.10
51215;DHT22;41093;47.444;19.134;2022-08-19T02:52:56;22.70;63.40
51215;DHT22;41093;47.444;19.134;2022-08-19T02:55:22;22.60;63.70
51215;DHT22;41093;47.444;19.134;2022-08-19T02:57:48;22.60;64.10
51215;DHT22;41093;47.444;19.134;2022-08-19T03:00:14;22.50;63.90
51215;DHT22;41093;47.444;19.134;2022-08-19T03:02:41;22.50;64.50
51215;DHT22;41093;47.444;19.134;2022-08-19T03:05:08;22.50;64.10
51215;DHT22;41093;47.444;19.134;2022-08-19T03:07:35;22.40;64.70
51215;DHT22;41093;47.444;19.134;2022-08-19T03:10:01;22.40;64.40
51215;DHT22;41093;47.444;19.134;2022-08-19T03:12:27;22.40;64.60
51215;DHT22;41093;47.444;19.134;2022-08-19T03:14:53;22.40;64.60
51215;DHT22;41093;47.444;19.134;2022-08-19T03:17:19;22.40;64.40
51215;DHT22;41093;47.444;19.134;2022-08-19T03:19:44;22.40;64.60
51215;DHT22;41093;47.444;19.134;2022-08-19T03:22:10;22.40;64.50
51215;DHT22;41093;47.444;19.134;2022-08-19T03:24:37;22.50;64.50
51215;DHT22;41093;47.444;19.134;2022-08-19T03:27:03;22.40;64.40
51215;DHT22;41093;47.444;19.134;2022-08-19T03:29:31;22.40;64.30
51215;DHT22;41093;47.444;19.134;2022-08-19T03:31:59;22.50;64.20
51215;DHT22;41093;47.444;19.134;2022-08-19T03:34:29;22.50;64.20
51215;DHT22;41093;47.444;19.134;2022-08-19T03:36:57;22.60;63.90
51215;DHT22;41093;47.444;19.134;2022-08-19T03:39:24;22.50;63.80
51215;DHT22;41093;47.444;19.134;2022-08-19T03:41:54;22.50;63.70
51215;DHT22;41093;47.444;19.134;2022-08-19T03:44:23;22.50;63.90
51215;DHT22;41093;47.444;19.134;2022-08-19T03:46:55;22.50;64.20
51215;DHT22;41093;47.444;19.134;2022-08-19T03:49:22;22.70;63.50
51215;DHT22;41093;47.444;19.134;2022-08-19T03:51:49;22.70;63.10
51215;DHT22;41093;47.444;19.134;2022-08-19T03:54:18;22.80;63.20
51215;DHT22;41093;47.444;19.134;2022-08-19T03:56:47;22.90;62.60
51215;DHT22;41093;47.444;19.134;2022-08-19T03:59:16;22.90;62.40
51215;DHT22;41093;47.444;19.134;2022-08-19T04:01:43;23.00;62.20
51215;DHT22;41093;47.444;19.134;2022-08-19T04:04:09;23.10;62.20
51215;DHT22;41093;47.444;19.134;2022-08-19T04:06:36;23.10;62.10
51215;DHT22;41093;47.444;19.134;2022-08-19T04:09:06;23.20;62.00
51215;DHT22;41093;47.444;19.134;2022-08-19T04:11:36;23.30;61.70
51215;DHT22;41093;47.444;19.134;2022-08-19T04:14:04;23.40;61.50
51215;DHT22;41093;47.444;19.134;2022-08-19T04:16:30;23.40;61.20
51215;DHT22;41093;47.444;19.134;2022-08-19T04:18:59;23.60;60.60
51215;DHT22;41093;47.444;19.134;2022-08-19T04:21:27;23.70;60.50
51215;DHT22;41093;47.444;19.134;2022-08-19T04:23:54;23.90;60.00
51215;DHT22;41093;47.444;19.134;2022-08-19T04:26:26;23.90;59.90
51215;DHT22;41093;47.444;19.134;2022-08-19T04:28:52;24.10;59.40
51215;DHT22;41093;47.444;19.134;2022-08-19T04:31:24;24.30;58.70
51215;DHT22;41093;47.444;19.134;2022-08-19T04:34:02;24.50;58.10
51215;DHT22;41093;47.444;19.134;2022-08-19T04:36:31;24.70;57.60
51215;DHT22;41093;47.444;19.134;2022-08-19T04:39:00;24.90;56.70
51215;DHT22;41093;47.444;19.134;2022-08-19T04:41:26;25.20;56.40
51215;DHT22;41093;47.444;19.134;2022-08-19T04:44:11;25.40;55.90
51215;DHT22;41093;47.444;19.134;2022-08-19T04:46:38;25.80;54.00
51215;DHT22;41093;47.444;19.134;2022-08-19T04:49:05;26.10;53.10
51215;DHT22;41093;47.444;19.134;2022-08-19T04:51:33;26.40;52.00
51215;DHT22;41093;47.444;19.134;2022-08-19T04:54:00;26.60;50.80
51215;DHT22;41093;47.444;19.134;2022-08-19T04:56:26;26.60;51.10
51215;DHT22;41093;47.444;19.134;2022-08-19T04:58:54;27.00;49.80
51215;DHT22;41093;47.444;19.134;2022-08-19T05:01:28;27.40;48.70
51215;DHT22;41093;47.444;19.134;2022-08-19T05:03:55;27.70;47.60
51215;DHT22;41093;47.444;19.134;2022-08-19T05:06:22;28.00;46.40
51215;DHT22;41093;47.444;19.134;2022-08-19T05:08:49;28.20;46.40
51215;DHT22;41093;47.444;19.134;2022-08-19T05:11:36;28.50;45.60
51215;DHT22;41093;47.444;19.134;2022-08-19T05:14:04;28.90;45.20
51215;DHT22;41093;47.444;19.134;2022-08-19T05:16:30;29.40;43.60
51215;DHT22;41093;47.444;19.134;2022-08-19T05:18:55;29.40;43.50
51215;DHT22;41093;47.444;19.134;2022-08-19T05:21:42;30.00;42.20
51215;DHT22;41093;47.444;19.134;2022-08-19T05:24:27;30.70;41.20
51215;DHT22;41093;47.444;19.134;2022-08-19T05:26:54;31.40;39.90
51215;DHT22;41093;47.444;19.134;2022-08-19T05:29:24;31.70;39.60
51215;DHT22;41093;47.444;19.134;2022-08-19T05:31:52;32.40;38.40
51215;DHT22;41093;47.444;19.134;2022-08-19T05:34:19;32.70;38.00
51215;DHT22;41093;47.444;19.134;2022-08-19T05:36:47;33.00;37.20
51215;DHT22;41093;47.444;19.134;2022-08-19T05:39:18;33.50;36.20
51215;DHT22;41093;47.444;19.134;2022-08-19T05:41:45;34.20;35.80
51215;DHT22;41093;47.444;19.134;2022-08-19T05:44:12;34.60;34.30
51215;DHT22;41093;47.444;19.134;2022-08-19T05:46:39;35.30;33.90
51215;DHT22;41093;47.444;19.134;2022-08-19T05:49:06;35.40;33.10
51215;DHT22;41093;47.444;19.134;2022-08-19T05:51:33;35.80;32.50
51215;DHT22;41093;47.444;19.134;2022-08-19T05:54:03;36.90;31.30
51215;DHT22;41093;47.444;19.134;2022-08-19T05:56:29;37.50;30.50
51215;DHT22;41093;47.444;19.134;2022-08-19T05:58:57;37.40;29.80
51215;DHT22;41093;47.444;19.134;2022-08-19T06:01:25;37.40;31.20
51215;DHT22;41093;47.444;19.134;2022-08-19T06:03:51;38.40;29.10
51215;DHT22;41093;47.444;19.134;2022-08-19T06:06:17;39.30;27.60
51215;DHT22;41093;47.444;19.134;2022-08-19T06:08:44;39.90;26.40
51215;DHT22;41093;47.444;19.134;2022-08-19T06:11:34;40.00;26.20
51215;DHT22;41093;47.444;19.134;2022-08-19T06:14:05;39.80;26.50
51215;DHT22;41093;47.444;19.134;2022-08-19T06:16:34;39.20;27.00
51215;DHT22;41093;47.444;19.134;2022-08-19T06:19:02;39.80;25.90
51215;DHT22;41093;47.444;19.134;2022-08-19T06:21:29;40.60;25.10
51215;DHT22;41093;47.444;19.134;2022-08-19T06:23:57;41.10;24.50
51215;DHT22;41093;47.444;19.134;2022-08-19T06:26:23;41.00;24.30
51215;DHT22;41093;47.444;19.134;2022-08-19T06:28:50;40.80;24.80
51215;DHT22;41093;47.444;19.134;2022-08-19T06:31:22;40.60;24.90
51215;DHT22;41093;47.444;19.134;2022-08-19T06:33:49;40.50;24.80
51215;DHT22;41093;47.444;19.134;2022-08-19T06:36:35;40.00;25.40
51215;DHT22;41093;47.444;19.134;2022-08-19T06:39:07;40.50;25.00
51215;DHT22;41093;47.444;19.134;2022-08-19T06:41:44;41.00;24.50
51215;DHT22;41093;47.444;19.134;2022-08-19T06:44:11;41.70;24.40
51215;DHT22;41093;47.444;19.134;2022-08-19T06:46:38;41.60;24.00
51215;DHT22;41093;47.444;19.134;2022-08-19T06:49:04;42.70;22.70
51215;DHT22;41093;47.444;19.134;2022-08-19T06:51:30;42.90;22.10
51215;DHT22;41093;47.444;19.134;2022-08-19T06:53:57;42.80;22.50
51215;DHT22;41093;47.444;19.134;2022-08-19T06:56:27;43.50;22.80
51215;DHT22;41093;47.444;19.134;2022-08-19T06:59:06;43.80;21.10
51215;DHT22;41093;47.444;19.134;2022-08-19T07:01:41;43.70;21.40
51215;DHT22;41093;47.444;19.134;2022-08-19T07:04:08;42.80;22.30
51215;DHT22;41093;47.444;19.134;2022-08-19T07:06:35;42.30;22.70
51215;DHT22;41093;47.444;19.134;2022-08-19T07:09:03;42.90;22.10
51215;DHT22;41093;47.444;19.134;2022-08-19T07:11:29;43.50;21.90
51215;DHT22;41093;47.444;19.134;2022-08-19T07:13:56;43.70;21.40
51215;DHT22;41093;47.444;19.134;2022-08-19T07:16:22;44.40;21.00
51215;DHT22;41093;47.444;19.134;2022-08-19T07:18:49;44.50;20.80
51215;DHT22;41093;47.444;19.134;2022-08-19T07:21:21;45.40;20.40
51215;DHT22;41093;47.444;19.134;2022-08-19T07:23:48;45.40;20.00
51215;DHT22;41093;47.444;19.134;2022-08-19T07:26:15;46.80;19.20
51215;DHT22;41093;47.444;19.134;2022-08-19T07:28:42;46.50;19.40
51215;DHT22;41093;47.444;19.134;2022-08-19T07:31:11;47.00;18.90
51215;DHT22;41093;47.444;19.134;2022-08-19T07:33:38;47.00;18.60
51215;DHT22;41093;47.444;19.134;2022-08-19T07:36:06;47.50;18.20
51215;DHT22;41093;47.444;19.134;2022-08-19T07:38:33;48.40;17.60
51215;DHT22;41093;47.444;19.134;2022-08-19T07:41:00;47.50;18.30
51215;DHT22;41093;47.444;19.134;2022-08-19T07:43:27;47.70;18.30
51215;DHT22;41093;47.444;19.134;2022-08-19T07:45:54;47.60;18.20
51215;DHT22;41093;47.444;19.134;2022-08-19T07:48:31;46.50;19.00
51215;DHT22;41093;47.444;19.134;2022-08-19T07:51:04;46.80;18.80
51215;DHT22;41093;47.444;19.134;2022-08-19T07:53:32;47.60;18.50
51215;DHT22;41093;47.444;19.134;2022-08-19T07:56:01;47.40;18.20
51215;DHT22;41093;47.444;19.134;2022-08-19T07:58:28;48.00;17.70
51215;DHT22;41093;47.444;19.134;2022-08-19T08:00:55;47.40;18.20
51215;DHT22;41093;47.444;19.134;2022-08-19T08:03:21;46.30;19.00
51215;DHT22;41093;47.444;19.134;2022-08-19T08:06:12;47.20;18.20
51215;DHT22;41093;47.444;19.134;2022-08-19T08:08:56;48.30;17.70
51215;DHT22;41093;47.444;19.134;2022-08-19T08:12:08;49.00;17.30
51215;DHT22;41093;47.444;19.134;2022-08-19T08:14:49;49.00;17.00
51215;DHT22;41093;47.444;19.134;2022-08-19T08:17:17;49.50;16.70
51215;DHT22;41093;47.444;19.134;2022-08-19T08:19:44;49.90;16.70
51215;DHT22;41093;47.444;19.134;2022-08-19T08:22:11;48.50;17.60
51215;DHT22;41093;47.444;19.134;2022-08-19T08:25:01;49.40;16.80
51215;DHT22;41093;47.444;19.134;2022-08-19T08:27:27;49.60;17.00
51215;DHT22;41093;47.444;19.134;2022-08-19T08:29:55;48.70;17.40
51215;DHT22;41093;47.444;19.134;2022-08-19T08:32:20;47.70;17.70
51215;DHT22;41093;47.444;19.134;2022-08-19T08:34:46;47.30;18.10
51215;DHT22;41093;47.444;19.134;2022-08-19T08:37:12;47.10;18.20
51215;DHT22;41093;47.444;19.134;2022-08-19T08:39:37;47.90;18.00
51215;DHT22;41093;47.444;19.134;2022-08-19T08:42:22;48.70;17.40
51215;DHT22;41093;47.444;19.134;2022-08-19T08:44:57;48.10;17.70
51215;DHT22;41093;47.444;19.134;2022-08-19T08:47:25;48.70;17.50
51215;DHT22;41093;47.444;19.134;2022-08-19T08:49:59;49.50;17.00
51215;DHT22;41093;47.444;19.134;2022-08-19T08:52:49;48.50;17.90
51215;DHT22;41093;47.444;19.134;2022-08-19T08:55:23;48.80;17.50
51215;DHT22;41093;47.444;19.134;2022-08-19T09:00:32;47.90;17.80
51215;DHT22;41093;47.444;19.134;2022-08-19T09:02:59;48.50;17.30
51215;DHT22;41093;47.444;19.134;2022-08-19T09:05:51;48.60;17.60
51215;DHT22;41093;47.444;19.134;2022-08-19T09:08:52;48.40;17.90
51215;DHT22;41093;47.444;19.134;2022-08-19T09:14:45;50.50;16.20
51215;DHT22;41093;47.444;19.134;2022-08-19T09:17:13;48.70;16.90
51215;DHT22;41093;47.444;19.134;2022-08-19T09:19:54;47.40;18.00
51215;DHT22;41093;47.444;19.134;2022-08-19T09:22:20;47.40;17.90
51215;DHT22;41093;47.444;19.134;2022-08-19T09:24:50;47.60;17.40
51215;DHT22;41093;47.444;19.134;2022-08-19T09:27:18;48.30;17.10
51215;DHT22;41093;47.444;19.134;2022-08-19T09:29:44;46.60;17.90
51215;DHT22;41093;47.444;19.134;2022-08-19T09:32:10;46.90;18.10
51215;DHT22;41093;47.444;19.134;2022-08-19T09:34:36;48.30;17.10
51215;DHT22;41093;47.444;19.134;2022-08-19T09:37:02;48.20;16.90
51215;DHT22;41093;47.444;19.134;2022-08-19T09:39:28;48.00;17.30
51215;DHT22;41093;47.444;19.134;2022-08-19T09:41:56;48.90;16.40
51215;DHT22;41093;47.444;19.134;2022-08-19T09:44:22;48.90;16.50
51215;DHT22;41093;47.444;19.134;2022-08-19T09:46:48;49.00;16.80
51215;DHT22;41093;47.444;19.134;2022-08-19T09:49:16;49.50;16.50
51215;DHT22;41093;47.444;19.134;2022-08-19T09:51:42;48.70;16.80
51215;DHT22;41093;47.444;19.134;2022-08-19T09:54:08;49.00;16.50
51215;DHT22;41093;47.444;19.134;2022-08-19T09:56:34;48.20;17.40
51215;DHT22;41093;47.444;19.134;2022-08-19T09:59:01;48.60;16.50
51215;DHT22;41093;47.444;19.134;2022-08-19T10:01:30;48.60;16.80
51215;DHT22;41093;47.444;19.134;2022-08-19T10:03:58;48.80;16.80
51215;DHT22;41093;47.444;19.134;2022-08-19T10:06:26;48.50;16.90
51215;DHT22;41093;47.444;19.134;2022-08-19T10:08:52;48.40;17.10
51215;DHT22;41093;47.444;19.134;2022-08-19T10:11:20;47.80;17.30
51215;DHT22;41093;47.444;19.134;2022-08-19T10:13:46;47.20;18.10
51215;DHT22;41093;47.444;19.134;2022-08-19T10:16:18;48.00;17.30
51215;DHT22;41093;47.444;19.134;2022-08-19T10:18:45;47.90;17.30
51215;DHT22;41093;47.444;19.134;2022-08-19T10:21:17;47.80;17.20
51215;DHT22;41093;47.444;19.134;2022-08-19T10:23:45;48.20;17.20
51215;DHT22;41093;47.444;19.134;2022-08-19T10:26:21;49.10;16.50
51215;DHT22;41093;47.444;19.134;2022-08-19T10:28:47;48.30;16.70
51215;DHT22;41093;47.444;19.134;2022-08-19T10:31:16;48.50;17.20
51215;DHT22;41093;47.444;19.134;2022-08-19T10:33:43;48.60;16.70
51215;DHT22;41093;47.444;19.134;2022-08-19T10:36:12;48.30;17.10
51215;DHT22;41093;47.444;19.134;2022-08-19T10:38:40;49.10;16.70
51215;DHT22;41093;47.444;19.134;2022-08-19T10:41:16;48.90;16.30
51215;DHT22;41093;47.444;19.134;2022-08-19T10:43:42;48.10;16.80
51215;DHT22;41093;47.444;19.134;2022-08-19T10:46:10;47.40;17.00
51215;DHT22;41093;47.444;19.134;2022-08-19T10:48:36;47.50;17.30
51215;DHT22;41093;47.444;19.134;2022-08-19T10:51:03;47.00;17.40
51215;DHT22;41093;47.444;19.134;2022-08-19T10:53:47;47.00;17.60
51215;DHT22;41093;47.444;19.134;2022-08-19T10:56:14;47.00;17.70
51215;DHT22;41093;47.444;19.134;2022-08-19T10:58:58;47.30;17.30
51215;DHT22;41093;47.444;19.134;2022-08-19T11:01:25;46.90;17.70
51215;DHT22;41093;47.444;19.134;2022-08-19T11:03:51;46.50;17.70
51215;DHT22;41093;47.444;19.134;2022-08-19T11:06:18;46.30;18.00
51215;DHT22;41093;47.444;19.134;2022-08-19T11:08:45;46.20;18.70
51215;DHT22;41093;47.444;19.134;2022-08-19T11:11:11;46.70;17.70
51215;DHT22;41093;47.444;19.134;2022-08-19T11:13:39;46.00;17.90
51215;DHT22;41093;47.444;19.134;2022-08-19T11:16:10;45.30;18.40
51215;DHT22;41093;47.444;19.134;2022-08-19T11:18:42;44.50;18.90
51215;DHT22;41093;47.444;19.134;2022-08-19T11:21:21;44.00;19.50
51215;DHT22;41093;47.444;19.134;2022-08-19T11:23:53;43.70;19.70
51215;DHT22;41093;47.444;19.134;2022-08-19T11:26:20;43.40;19.60
51215;DHT22;41093;47.444;19.134;2022-08-19T11:28:46;42.90;20.40
51215;DHT22;41093;47.444;19.134;2022-08-19T11:31:18;42.00;21.30
51215;DHT22;41093;47.444;19.134;2022-08-19T11:33:44;41.00;22.50
51215;DHT22;41093;47.444;19.134;2022-08-19T11:36:11;40.80;22.50
51215;DHT22;41093;47.444;19.134;2022-08-19T11:38:38;40.70;22.50
51215;DHT22;41093;47.444;19.134;2022-08-19T11:41:06;40.20;22.90
51215;DHT22;41093;47.444;19.134;2022-08-19T11:43:36;39.80;23.80
51215;DHT22;41093;47.444;19.134;2022-08-19T11:46:07;40.00;23.50
51215;DHT22;41093;47.444;19.134;2022-08-19T11:48:34;40.40;22.70
51215;DHT22;41093;47.444;19.134;2022-08-19T11:51:07;40.30;22.90
51215;DHT22;41093;47.444;19.134;2022-08-19T11:53:35;40.40;22.90
51215;DHT22;41093;47.444;19.134;2022-08-19T11:56:01;40.50;22.40
51215;DHT22;41093;47.444;19.134;2022-08-19T11:58:28;40.30;22.20
51215;DHT22;41093;47.444;19.134;2022-08-19T12:00:54;40.00;23.10
51215;DHT22;41093;47.444;19.134;2022-08-19T12:03:20;40.00;22.90
51215;DHT22;41093;47.444;19.134;2022-08-19T12:05:46;39.60;23.40
51215;DHT22;41093;47.444;19.134;2022-08-19T12:08:12;39.70;23.30
51215;DHT22;41093;47.444;19.134;2022-08-19T12:10:39;39.80;23.20
51215;DHT22;41093;47.444;19.134;2022-08-19T12:13:06;39.60;23.40
51215;DHT22;41093;47.444;19.134;2022-08-19T12:15:37;39.60;23.40
51215;DHT22;41093;47.444;19.134;2022-08-19T12:18:04;39.60;23.40
51215;DHT22;41093;47.444;19.134;2022-08-19T12:20:30;39.90;23.10
51215;DHT22;41093;47.444;19.134;2022-08-19T12:22:55;39.70;23.30
51215;DHT22;41093;47.444;19.134;2022-08-19T12:25:22;39.60;24.00
51215;DHT22;41093;47.444;19.134;2022-08-19T12:27:47;39.90;24.30
51215;DHT22;41093;47.444;19.134;2022-08-19T12:30:15;40.20;23.80
51215;DHT22;41093;47.444;19.134;2022-08-19T12:32:41;40.50;22.90
51215;DHT22;41093;47.444;19.134;2022-08-19T12:35:07;40.40;22.50
51215;DHT22;41093;47.444;19.134;2022-08-19T12:37:34;40.00;22.90
51215;DHT22;41093;47.444;19.134;2022-08-19T12:40:00;39.70;23.50
51215;DHT22;41093;47.444;19.134;2022-08-19T12:42:27;39.70;23.60
51215;DHT22;41093;47.444;19.134;2022-08-19T12:44:53;39.90;23.50
51215;DHT22;41093;47.444;19.134;2022-08-19T12:47:19;40.00;23.70
51215;DHT22;41093;47.444;19.134;2022-08-19T12:49:44;40.00;22.90
51215;DHT22;41093;47.444;19.134;2022-08-19T12:52:11;39.80;23.40
51215;DHT22;41093;47.444;19.134;2022-08-19T12:54:40;39.70;23.70
51215;DHT22;41093;47.444;19.134;2022-08-19T12:57:07;39.70;24.50
51215;DHT22;41093;47.444;19.134;2022-08-19T12:59:34;39.80;24.10
51215;DHT22;41093;47.444;19.134;2022-08-19T13:02:05;39.70;23.90
51215;DHT22;41093;47.444;19.134;2022-08-19T13:04:32;39.60;23.40
51215;DHT22;41093;47.444;19.134;2022-08-19T13:07:00;39.70;24.50
51215;DHT22;41093;47.444;19.134;2022-08-19T13:09:26;39.90;23.00
51215;DHT22;41093;47.444;19.134;2022-08-19T13:11:52;39.80;22.80
51215;DHT22;41093;47.444;19.134;2022-08-19T13:14:17;39.60;23.30
51215;DHT22;41093;47.444;19.134;2022-08-19T13:16:44;39.40;23.10
51215;DHT22;41093;47.444;19.134;2022-08-19T13:19:10;39.40;23.70
51215;DHT22;41093;47.444;19.134;2022-08-19T13:21:37;39.40;23.10
51215;DHT22;41093;47.444;19.134;2022-08-19T13:24:03;39.50;23.00
51215;DHT22;41093;47.444;19.134;2022-08-19T13:26:29;39.90;22.60
51215;DHT22;41093;47.444;19.134;2022-08-19T13:28:55;39.90;22.60
51215;DHT22;41093;47.444;19.134;2022-08-19T13:31:41;39.70;23.90
51215;DHT22;41093;47.444;19.134;2022-08-19T13:34:30;39.50;23.30
51215;DHT22;41093;47.444;19.134;2022-08-19T13:36:58;39.40;23.60
51215;DHT22;41093;47.444;19.134;2022-08-19T13:39:24;39.20;23.80
51215;DHT22;41093;47.444;19.134;2022-08-19T13:41:50;39.30;23.00
51215;DHT22;41093;47.444;19.134;2022-08-19T13:44:16;39.10;24.10
51215;DHT22;41093;47.444;19.134;2022-08-19T13:46:44;39.00;23.90
51215;DHT22;41093;47.444;19.134;2022-08-19T13:49:12;38.70;23.50
51215;DHT22;41093;47.444;19.134;2022-08-19T13:51:39;38.70;23.70
51215;DHT22;41093;47.444;19.134;2022-08-19T13:54:06;38.90;23.90
51215;DHT22;41093;47.444;19.134;2022-08-19T13:56:34;38.70;24.60
51215;DHT22;41093;47.444;19.134;2022-08-19T13:59:00;38.80;24.30
51215;DHT22;41093;47.444;19.134;2022-08-19T14:01:26;38.80;25.50
51215;DHT22;41093;47.444;19.134;2022-08-19T14:03:52;38.80;26.40
51215;DHT22;41093;47.444;19.134;2022-08-19T14:06:19;38.80;26.70
51215;DHT22;41093;47.444;19.134;2022-08-19T14:08:46;38.20;28.00
51215;DHT22;41093;47.444;19.134;2022-08-19T14:11:12;38.10;28.70
51215;DHT22;41093;47.444;19.134;2022-08-19T14:13:38;37.60;29.90
51215;DHT22;41093;47.444;19.134;2022-08-19T14:16:12;37.10;30.80
51215;DHT22;41093;47.444;19.134;2022-08-19T14:18:38;36.50;31.30
51215;DHT22;41093;47.444;19.134;2022-08-19T14:21:05;36.10;31.80
51215;DHT22;41093;47.444;19.134;2022-08-19T14:23:32;35.70;32.70
51215;DHT22;41093;47.444;19.134;2022-08-19T14:26:11;35.60;33.10
51215;DHT22;41093;47.444;19.134;2022-08-19T14:28:38;35.30;33.00
51215;DHT22;41093;47.444;19.134;2022-08-19T14:31:11;35.30;33.30
51215;DHT22;41093;47.444;19.134;2022-08-19T14:33:37;35.40;33.70
51215;DHT22;41093;47.444;19.134;2022-08-19T14:36:03;35.50;33.20
51215;DHT22;41093;47.444;19.134;2022-08-19T14:38:29;35.40;33.40
51215;DHT22;41093;47.444;19.134;2022-08-19T14:41:15;35.30;33.30
51215;DHT22;41093;47.444;19.134;2022-08-19T14:43:43;35.10;33.30
51215;DHT22;41093;47.444;19.134;2022-08-19T14:46:13;35.00;34.30
51215;DHT22;41093;47.444;19.134;2022-08-19T14:48:41;34.80;34.60
51215;DHT22;41093;47.444;19.134;2022-08-19T14:51:07;34.80;34.50
51215;DHT22;41093;47.444;19.134;2022-08-19T14:53:33;34.60;34.00
51215;DHT22;41093;47.444;19.134;2022-08-19T14:56:00;34.40;34.50
51215;DHT22;41093;47.444;19.134;2022-08-19T14:58:26;34.20;34.80
51215;DHT22;41093;47.444;19.134;2022-08-19T15:00:52;34.00;34.30
51215;DHT22;41093;47.444;19.134;2022-08-19T15:03:18;33.80;34.20
51215;DHT22;41093;47.444;19.134;2022-08-19T15:05:44;33.60;34.60
51215;DHT22;41093;47.444;19.134;2022-08-19T15:08:10;33.50;34.00
51215;DHT22;41093;47.444;19.134;2022-08-19T15:10:38;33.50;33.40
51215;DHT22;41093;47.444;19.134;2022-08-19T15:13:04;33.50;33.20
51215;DHT22;41093;47.444;19.134;2022-08-19T15:15:29;33.50;32.40
51215;DHT22;41093;47.444;19.134;2022-08-19T15:17:55;33.60;31.50
51215;DHT22;41093;47.444;19.134;2022-08-19T15:20:28;33.60;31.80
51215;DHT22;41093;47.444;19.134;2022-08-19T15:22:54;33.60;31.50
51215;DHT22;41093;47.444;19.134;2022-08-19T15:25:19;33.70;31.30
51215;DHT22;41093;47.444;19.134;2022-08-19T15:27:46;33.60;30.80
51215;DHT22;41093;47.444;19.134;2022-08-19T15:30:17;33.70;32.20
51215;DHT22;41093;47.444;19.134;2022-08-19T15:32:43;33.50;30.40